sensor_id;sensor_type;location;lat;lon;timestamp;temperature;humidity
40816;DHT22;26535;48.788;9.214;2023-04-16T05:03:37;7.90;99.90
40816;DHT22;26535;48.788;9.214;2023-04-16T05:06:03;7.90;99.90
40816;DHT22;26535;48.788;9.214;2023-04-16T05:08:29;7.90;99.90
40816;DHT22;26535;48.788;9.214;2023-04-16T05:10:55;7.90;99.90
40816;DHT22;26535;48.788;9.214;2023-04-16T05:13:23;7.90;99.90
40816;DHT22;26535;48.788;9.214;2023-04-16T05:15:49;7.90;99.90
40816;DHT22;26535;48.788;9.214;2023-04-16T05:18:15;7.90;99.90
40816;DHT22;26535;48.788;9.214;2023-04-16T05:20:41;7.90;99.90
40816;DHT22;26535;48.788;9.214;2023-04-16T05:23:07;7.90;99.90
40816;DHT22;26535;48.788;9.214;2023-04-16T05:25:33;7.90;99.90
40816;DHT22;26535;48.788;9.214;2023-04-16T05:27:58;7.80;99.90
40816;DHT22;26535;48.788;9.214;2023-04-16T05:30:24;7.90;99.90
40816;DHT22;26535;48.788;9.214;2023-04-16T05:32:56;7.80;99.90
40816;DHT22;26535;48.788;9.214;2023-04-16T05:35:24;7.90;99.90
40816;DHT22;26535;48.788;9.214;2023-04-16T05:37:54;7.90;99.90
40816;DHT22;26535;48.788;9.214;2023-04-16T05:40:20;7.90;99.90
40816;DHT22;26535;48.788;9.214;2023-04-16T05:42:49;7.90;99.90
40816;DHT22;26535;48.788;9.214;2023-04-16T05:45:14;7.90;99.90
40816;DHT22;26535;48.788;9.214;2023-04-16T05:47:41;7.90;99.90
40816;DHT22;26535;48.788;9.214;2023-04-16T05:50:08;7.80;99.90
40816;DHT22;26535;48.788;9.214;2023-04-16T05:52:34;7.90;99.90
40816;DHT22;26535;48.788;9.214;2023-04-16T05:54:59;7.80;99.90
40816;DHT22;26535;48.788;9.214;2023-04-16T05:57:27;7.90;99.90
40816;DHT22;26535;48.788;9.214;2023-04-16T05:59:53;7.90;99.90
40816;DHT22;26535;48.788;9.214;2023-04-16T06:02:19;7.90;99.90
40816;DHT22;26535;48.788;9.214;2023-04-16T06:04:48;7.80;99.90
40816;DHT22;26535;48.788;9.214;2023-04-16T06:07:14;7.80;99.90
40816;DHT22;26535;48.788;9.214;2023-04-16T06:09:40;7.80;99.90
40816;DHT22;26535;48.788;9.214;2023-04-16T06:12:08;7.80;99.90
40816;DHT22;26535;48.788;9.214;2023-04-16T06:14:37;7.90;99.90
40816;DHT22;26535;48.788;9.214;2023-04-16T06:17:11;7.90;99.90
40816;DHT22;26535;48.788;9.214;2023-04-16T06:19:40;7.90;99.90
40816;DHT22;26535;48.788;9.214;2023-04-16T06:22:12;7.90;99.90
40816;DHT22;26535;48.788;9.214;2023-04-16T06:24:44;7.90;99.90
40816;DHT22;26535;48.788;9.214;2023-04-16T06:27:40;8.00;99.90
40816;DHT22;26535;48.788;9.214;2023-04-16T06:30:30;8.00;99.90
40816;DHT22;26535;48.788;9.214;2023-04-16T06:33:02;7.90;99.90
40816;DHT22;26535;48.788;9.214;2023-04-16T06:36:15;8.00;99.90
40816;DHT22;26535;48.788;9.214;2023-04-16T06:38:47;8.00;99.90
40816;DHT22;26535;48.788;9.214;2023-04-16T06:41:24;8.00;99.90
40816;DHT22;26535;48.788;9.214;2023-04-16T06:43:51;8.10;99.90
40816;DHT22;26535;48.788;9.214;2023-04-16T06:46:16;8.20;99.90
40816;DHT22;26535;48.788;9.214;2023-04-16T06:48:42;8.20;99.90
40816;DHT22;26535;48.788;9.214;2023-04-16T06:51:08;8.20;99.90
40816;DHT22;26535;48.788;9.214;2023-04-16T06:53:35;8.20;99.90
40816;DHT22;26535;48.788;9.214;2023-04-16T06:56:02;8.30;99.90
40816;DHT22;26535;48.788;9.214;2023-04-16T06:58:31;8.30;99.90
40816;DHT22;26535;48.788;9.214;2023-04-16T07:00:57;8.20;99.90
40816;DHT22;26535;48.788;9.214;2023-04-16T07:03:23;8.30;99.90
40816;DHT22;26535;48.788;9.214;2023-04-16T07:05:49;8.20;99.90
40816;DHT22;26535;48.788;9.214;2023-04-16T07:08:15;8.30;99.90
40816;DHT22;26535;48.788;9.214;2023-04-16T07:10:40;8.40;99.90
40816;DHT22;26535;48.788;9.214;2023-04-16T07:13:41;8.50;99.90
40816;DHT22;26535;48.788;9.214;2023-04-16T07:19:06;8.60;99.90
40816;DHT22;26535;48.788;9.214;2023-04-16T07:21:35;8.80;99.90
40816;DHT22;26535;48.788;9.214;2023-04-16T07:24:11;8.90;99.90
40816;DHT22;26535;48.788;9.214;2023-04-16T07:26:37;8.90;99.90
40816;DHT22;26535;48.788;9.214;2023-04-16T07:29:03;9.00;99.90
40816;DHT22;26535;48.788;9.214;2023-04-16T07:31:32;9.10;99.90
40816;DHT22;26535;48.788;9.214;2023-04-16T07:34:01;9.10;99.90
40816;DHT22;26535;48.788;9.214;2023-04-16T07:36:50;9.10;99.90
40816;DHT22;26535;48.788;9.214;2023-04-16T07:39:27;9.20;99.90
40816;DHT22;26535;48.788;9.214;2023-04-16T07:42:02;9.20;99.90
40816;DHT22;26535;48.788;9.214;2023-04-16T07:44:31;9.20;99.90
40816;DHT22;26535;48.788;9.214;2023-04-16T07:46:57;9.20;99.90
40816;DHT22;26535;48.788;9.214;2023-04-16T07:49:23;9.20;99.90
40816;DHT22;26535;48.788;9.214;2023-04-16T07:51:48;9.10;99.90
40816;DHT22;26535;48.788;9.214;2023-04-16T07:54:14;8.90;99.90
40816;DHT22;26535;48.788;9.214;2023-04-16T07:56:43;8.90;99.90
40816;DHT22;26535;48.788;9.214;2023-04-16T07:59:08;8.80;99.90
40816;DHT22;26535;48.788;9.214;2023-04-16T08:01:34;8.80;99.90
40816;DHT22;26535;48.788;9.214;2023-04-16T08:04:00;8.90;99.90
40816;DHT22;26535;48.788;9.214;2023-04-16T08:06:26;9.00;99.90
40816;DHT22;26535;48.788;9.214;2023-04-16T08:08:55;9.00;99.90
40816;DHT22;26535;48.788;9.214;2023-04-16T08:11:20;9.00;99.90
40816;DHT22;26535;48.788;9.214;2023-04-16T08:13:46;9.00;99.90
40816;DHT22;26535;48.788;9.214;2023-04-16T08:16:27;9.00;99.90
40816;DHT22;26535;48.788;9.214;2023-04-16T08:18:53;8.90;99.90
40816;DHT22;26535;48.788;9.214;2023-04-16T08:21:21;9.00;99.90
40816;DHT22;26535;48.788;9.214;2023-04-16T08:23:53;8.90;99.90
40816;DHT22;26535;48.788;9.214;2023-04-16T08:26:23;8.90;99.90
40816;DHT22;26535;48.788;9.214;2023-04-16T08:28:49;9.00;99.90
40816;DHT22;26535;48.788;9.214;2023-04-16T08:31:15;9.00;99.90
40816;DHT22;26535;48.788;9.214;2023-04-16T08:33:41;9.10;99.90
40816;DHT22;26535;48.788;9.214;2023-04-16T08:36:07;9.20;99.90
40816;DHT22;26535;48.788;9.214;2023-04-16T08:38:33;9.30;99.90
40816;DHT22;26535;48.788;9.214;2023-04-16T08:41:01;9.30;99.90
40816;DHT22;26535;48.788;9.214;2023-04-16T08:43:32;9.30;99.90
40816;DHT22;26535;48.788;9.214;2023-04-16T08:48:36;9.40;99.90
40816;DHT22;26535;48.788;9.214;2023-04-16T08:51:02;9.30;99.90
40816;DHT22;26535;48.788;9.214;2023-04-16T08:53:58;9.40;99.90
40816;DHT22;26535;48.788;9.214;2023-04-16T08:56:25;9.50;99.90
40816;DHT22;26535;48.788;9.214;2023-04-16T08:58:53;9.50;99.90
40816;DHT22;26535;48.788;9.214;2023-04-16T09:01:19;9.40;99.90
40816;DHT22;26535;48.788;9.214;2023-04-16T09:03:46;9.50;99.90
40816;DHT22;26535;48.788;9.214;2023-04-16T09:06:13;9.50;99.90
40816;DHT22;26535;48.788;9.214;2023-04-16T09:08:40;9.70;99.90
40816;DHT22;26535;48.788;9.214;2023-04-16T09:11:05;9.80;99.90
40816;DHT22;26535;48.788;9.214;2023-04-16T09:13:31;9.80;99.90
40816;DHT22;26535;48.788;9.214;2023-04-16T09:15:57;10.00;99.90
40816;DHT22;26535;48.788;9.214;2023-04-16T09:18:24;10.00;99.90
40816;DHT22;26535;48.788;9.214;2023-04-16T09:20:50;10.00;99.90
40816;DHT22;26535;48.788;9.214;2023-04-16T09:23:16;10.00;99.90
40816;DHT22;26535;48.788;9.214;2023-04-16T09:25:42;10.10;99.90
40816;DHT22;26535;48.788;9.214;2023-04-16T09:28:09;10.20;99.90
40816;DHT22;26535;48.788;9.214;2023-04-16T09:30:36;10.40;99.90
40816;DHT22;26535;48.788;9.214;2023-04-16T09:33:19;10.50;99.90
40816;DHT22;26535;48.788;9.214;2023-04-16T09:35:50;10.60;99.90
40816;DHT22;26535;48.788;9.214;2023-04-16T09:38:16;10.60;99.90
40816;DHT22;26535;48.788;9.214;2023-04-16T09:40:42;10.70;99.90
40816;DHT22;26535;48.788;9.214;2023-04-16T09:43:15;10.70;99.90
40816;DHT22;26535;48.788;9.214;2023-04-16T09:46:01;10.60;99.90
40816;DHT22;26535;48.788;9.214;2023-04-16T09:48:32;10.50;99.90
40816;DHT22;26535;48.788;9.214;2023-04-16T09:51:05;10.20;99.90
40816;DHT22;26535;48.788;9.214;2023-04-16T09:53:34;10.00;99.90
40816;DHT22;26535;48.788;9.214;2023-04-16T09:56:22;10.00;99.90
40816;DHT22;26535;48.788;9.214;2023-04-16T09:59:03;10.00;99.90
40816;DHT22;26535;48.788;9.214;2023-04-16T10:01:32;9.80;99.90
40816;DHT22;26535;48.788;9.214;2023-04-16T10:03:58;9.80;99.90
40816;DHT22;26535;48.788;9.214;2023-04-16T10:06:31;9.70;99.90
40816;DHT22;26535;48.788;9.214;2023-04-16T10:08:59;9.70;99.90
40816;DHT22;26535;48.788;9.214;2023-04-16T10:11:28;9.70;99.90
40816;DHT22;26535;48.788;9.214;2023-04-16T10:13:54;9.60;99.90
40816;DHT22;26535;48.788;9.214;2023-04-16T10:16:22;9.60;99.90
40816;DHT22;26535;48.788;9.214;2023-04-16T10:18:52;9.60;99.90
40816;DHT22;26535;48.788;9.214;2023-04-16T10:21:18;9.60;99.90
40816;DHT22;26535;48.788;9.214;2023-04-16T10:23:44;9.60;99.90
40816;DHT22;26535;48.788;9.214;2023-04-16T10:26:21;9.60;99.90
40816;DHT22;26535;48.788;9.214;2023-04-16T10:28:47;9.70;99.90
40816;DHT22;26535;48.788;9.214;2023-04-16T10:31:13;9.80;99.90
40816;DHT22;26535;48.788;9.214;2023-04-16T10:33:40;10.00;99.90
40816;DHT22;26535;48.788;9.214;2023-04-16T10:36:17;10.20;99.90
40816;DHT22;26535;48.788;9.214;2023-04-16T10:38:49;10.50;99.90
40816;DHT22;26535;48.788;9.214;2023-04-16T10:41:15;10.60;99.90
40816;DHT22;26535;48.788;9.214;2023-04-16T10:43:46;10.90;99.90
40816;DHT22;26535;48.788;9.214;2023-04-16T10:46:47;10.90;99.90
40816;DHT22;26535;48.788;9.214;2023-04-16T10:49:17;11.00;99.90
40816;DHT22;26535;48.788;9.214;2023-04-16T10:52:00;10.90;99.90
40816;DHT22;26535;48.788;9.214;2023-04-16T10:54:29;10.90;99.90
40816;DHT22;26535;48.788;9.214;2023-04-16T10:56:58;11.00;99.90
40816;DHT22;26535;48.788;9.214;2023-04-16T10:59:24;11.00;99.90
40816;DHT22;26535;48.788;9.214;2023-04-16T11:01:55;11.00;99.90
40816;DHT22;26535;48.788;9.214;2023-04-16T11:09:55;10.80;99.90
40816;DHT22;26535;48.788;9.214;2023-04-16T11:12:26;10.70;99.90
40816;DHT22;26535;48.788;9.214;2023-04-16T11:15:14;10.70;99.90
40816;DHT22;26535;48.788;9.214;2023-04-16T11:17:42;10.90;99.90
40816;DHT22;26535;48.788;9.214;2023-04-16T11:22:41;10.70;99.90
40816;DHT22;26535;48.788;9.214;2023-04-16T11:25:07;10.60;99.90
40816;DHT22;26535;48.788;9.214;2023-04-16T11:27:33;10.40;99.90
40816;DHT22;26535;48.788;9.214;2023-04-16T11:30:04;10.30;99.90
40816;DHT22;26535;48.788;9.214;2023-04-16T11:32:36;10.20;99.90
40816;DHT22;26535;48.788;9.214;2023-04-16T11:35:04;10.20;99.90
40816;DHT22;26535;48.788;9.214;2023-04-16T11:37:37;10.20;99.90
40816;DHT22;26535;48.788;9.214;2023-04-16T11:40:07;10.10;99.90
40816;DHT22;26535;48.788;9.214;2023-04-16T11:42:35;10.10;99.90
40816;DHT22;26535;48.788;9.214;2023-04-16T11:45:06;10.10;99.90
40816;DHT22;26535;48.788;9.214;2023-04-16T11:47:53;10.10;99.90
40816;DHT22;26535;48.788;9.214;2023-04-16T11:50:24;10.10;99.90
40816;DHT22;26535;48.788;9.214;2023-04-16T11:52:52;10.10;99.90
40816;DHT22;26535;48.788;9.214;2023-04-16T11:55:19;10.10;99.90
40816;DHT22;26535;48.788;9.214;2023-04-16T11:57:45;10.10;99.90
40816;DHT22;26535;48.788;9.214;2023-04-16T12:00:12;10.00;99.90
40816;DHT22;26535;48.788;9.214;2023-04-16T12:02:48;10.00;99.90
40816;DHT22;26535;48.788;9.214;2023-04-16T12:05:34;9.90;99.90
40816;DHT22;26535;48.788;9.214;2023-04-16T12:08:04;10.00;99.90
40816;DHT22;26535;48.788;9.214;2023-04-16T12:10:32;10.00;99.90
40816;DHT22;26535;48.788;9.214;2023-04-16T12:13:14;10.00;99.90
40816;DHT22;26535;48.788;9.214;2023-04-16T12:15:48;10.00;99.90
40816;DHT22;26535;48.788;9.214;2023-04-16T12:18:15;10.00;99.90
40816;DHT22;26535;48.788;9.214;2023-04-16T12:20:42;10.10;99.90
40816;DHT22;26535;48.788;9.214;2023-04-16T12:23:20;10.00;99.90
40816;DHT22;26535;48.788;9.214;2023-04-16T12:25:46;10.00;99.90
40816;DHT22;26535;48.788;9.214;2023-04-16T12:28:14;10.10;99.90
40816;DHT22;26535;48.788;9.214;2023-04-16T12:30:50;10.00;99.90
40816;DHT22;26535;48.788;9.214;2023-04-16T12:33:18;9.90;99.90
40816;DHT22;26535;48.788;9.214;2023-04-16T12:35:44;9.90;99.90
40816;DHT22;26535;48.788;9.214;2023-04-16T12:38:10;9.90;99.90
40816;DHT22;26535;48.788;9.214;2023-04-16T12:40:37;9.90;99.90
40816;DHT22;26535;48.788;9.214;2023-04-16T12:43:02;10.00;99.90
40816;DHT22;26535;48.788;9.214;2023-04-16T12:45:28;9.90;99.90
40816;DHT22;26535;48.788;9.214;2023-04-16T12:47:54;10.10;99.90
40816;DHT22;26535;48.788;9.214;2023-04-16T12:50:20;10.20;99.90
40816;DHT22;26535;48.788;9.214;2023-04-16T12:52:46;10.10;99.90
40816;DHT22;26535;48.788;9.214;2023-04-16T12:55:12;10.10;99.90
40816;DHT22;26535;48.788;9.214;2023-04-16T12:57:39;10.10;99.90
40816;DHT22;26535;48.788;9.214;2023-04-16T13:00:05;10.10;99.90
40816;DHT22;26535;48.788;9.214;2023-04-16T13:02:31;10.00;99.90
40816;DHT22;26535;48.788;9.214;2023-04-16T13:04:57;10.00;99.90
40816;DHT22;26535;48.788;9.214;2023-04-16T13:07:23;10.00;99.90
40816;DHT22;26535;48.788;9.214;2023-04-16T13:09:51;10.00;99.90
40816;DHT22;26535;48.788;9.214;2023-04-16T13:12:17;10.00;99.90
40816;DHT22;26535;48.788;9.214;2023-04-16T13:14:42;10.00;99.90
40816;DHT22;26535;48.788;9.214;2023-04-16T13:17:08;10.00;99.90
40816;DHT22;26535;48.788;9.214;2023-04-16T13:19:34;10.10;99.90
40816;DHT22;26535;48.788;9.214;2023-04-16T13:22:00;10.10;99.90
40816;DHT22;26535;48.788;9.214;2023-04-16T13:24:25;10.10;99.90
40816;DHT22;26535;48.788;9.214;2023-04-16T13:26:51;10.10;99.90
40816;DHT22;26535;48.788;9.214;2023-04-16T13:29:21;10.20;99.90
40816;DHT22;26535;48.788;9.214;2023-04-16T13:31:47;10.20;99.90
40816;DHT22;26535;48.788;9.214;2023-04-16T13:34:13;10.20;99.90
40816;DHT22;26535;48.788;9.214;2023-04-16T13:36:39;10.20;99.90
40816;DHT22;26535;48.788;9.214;2023-04-16T13:39:05;10.30;99.90
40816;DHT22;26535;48.788;9.214;2023-04-16T13:41:38;10.30;99.90
40816;DHT22;26535;48.788;9.214;2023-04-16T13:44:04;10.30;99.90
40816;DHT22;26535;48.788;9.214;2023-04-16T13:46:30;10.30;99.90
40816;DHT22;26535;48.788;9.214;2023-04-16T13:48:56;10.30;99.90
40816;DHT22;26535;48.788;9.214;2023-04-16T13:51:22;10.30;99.90
40816;DHT22;26535;48.788;9.214;2023-04-16T13:53:48;10.20;99.90
40816;DHT22;26535;48.788;9.214;2023-04-16T13:56:13;10.20;99.90
40816;DHT22;26535;48.788;9.214;2023-04-16T13:58:39;10.20;99.90
40816;DHT22;26535;48.788;9.214;2023-04-16T14:01:06;10.20;99.90
40816;DHT22;26535;48.788;9.214;2023-04-16T14:03:32;10.20;99.90
40816;DHT22;26535;48.788;9.214;2023-04-16T14:06:03;10.30;99.90
40816;DHT22;26535;48.788;9.214;2023-04-16T14:08:29;10.30;99.90
40816;DHT22;26535;48.788;9.214;2023-04-16T14:10:55;10.30;99.90
40816;DHT22;26535;48.788;9.214;2023-04-16T14:13:21;10.20;99.90
40816;DHT22;26535;48.788;9.214;2023-04-16T14:15:47;10.20;99.90
40816;DHT22;26535;48.788;9.214;2023-04-16T14:18:13;10.20;99.90
40816;DHT22;26535;48.788;9.214;2023-04-16T14:20:39;10.10;99.90
40816;DHT22;26535;48.788;9.214;2023-04-16T14:23:05;10.10;99.90
40816;DHT22;26535;48.788;9.214;2023-04-16T14:25:32;10.10;99.90
40816;DHT22;26535;48.788;9.214;2023-04-16T14:27:58;10.10;99.90
40816;DHT22;26535;48.788;9.214;2023-04-16T14:30:25;10.10;99.90
40816;DHT22;26535;48.788;9.214;2023-04-16T14:32:51;10.10;99.90
40816;DHT22;26535;48.788;9.214;2023-04-16T14:35:17;10.10;99.90
40816;DHT22;26535;48.788;9.214;2023-04-16T14:37:42;10.00;99.90
40816;DHT22;26535;48.788;9.214;2023-04-16T14:40:09;9.90;99.90
40816;DHT22;26535;48.788;9.214;2023-04-16T14:42:35;9.90;99.90
40816;DHT22;26535;48.788;9.214;2023-04-16T14:45:02;9.90;99.90
40816;DHT22;26535;48.788;9.214;2023-04-16T14:47:31;9.90;99.90
40816;DHT22;26535;48.788;9.214;2023-04-16T14:49:57;9.90;99.90
40816;DHT22;26535;48.788;9.214;2023-04-16T14:52:23;9.90;99.90
40816;DHT22;26535;48.788;9.214;2023-04-16T14:54:49;9.90;99.90
40816;DHT22;26535;48.788;9.214;2023-04-16T14:57:16;10.00;99.90
40816;DHT22;26535;48.788;9.214;2023-04-16T14:59:42;9.90;99.90
40816;DHT22;26535;48.788;9.214;2023-04-16T15:02:08;9.90;99.90
40816;DHT22;26535;48.788;9.214;2023-04-16T15:04:35;9.90;99.90
40816;DHT22;26535;48.788;9.214;2023-04-16T15:07:00;9.80;99.90
40816;DHT22;26535;48.788;9.214;2023-04-16T15:09:26;9.70;99.90
40816;DHT22;26535;48.788;9.214;2023-04-16T15:11:52;9.80;99.90
40816;DHT22;26535;48.788;9.214;2023-04-16T15:14:18;9.70;99.90
40816;DHT22;26535;48.788;9.214;2023-04-16T15:16:45;9.90;99.90
40816;DHT22;26535;48.788;9.214;2023-04-16T15:19:11;9.90;99.90
40816;DHT22;26535;48.788;9.214;2023-04-16T15:21:36;9.90;99.90
40816;DHT22;26535;48.788;9.214;2023-04-16T15:24:02;9.90;99.90
40816;DHT22;26535;48.788;9.214;2023-04-16T15:26:29;9.90;99.90
40816;DHT22;26535;48.788;9.214;2023-04-16T15:28:55;9.90;99.90
40816;DHT22;26535;48.788;9.214;2023-04-16T15:31:21;9.90;99.90
40816;DHT22;26535;48.788;9.214;2023-04-16T15:33:48;9.80;99.90
40816;DHT22;26535;48.788;9.214;2023-04-16T15:36:14;9.80;99.90
40816;DHT22;26535;48.788;9.214;2023-04-16T15:38:40;9.70;99.90
40816;DHT22;26535;48.788;9.214;2023-04-16T15:41:08;9.70;99.90
40816;DHT22;26535;48.788;9.214;2023-04-16T15:43:34;9.70;99.90
40816;DHT22;26535;48.788;9.214;2023-04-16T15:46:00;9.70;99.90
40816;DHT22;26535;48.788;9.214;2023-04-16T15:48:25;9.60;99.90
40816;DHT22;26535;48.788;9.214;2023-04-16T15:50:52;9.60;99.90
40816;DHT22;26535;48.788;9.214;2023-04-16T15:53:18;9.60;99.90
40816;DHT22;26535;48.788;9.214;2023-04-16T15:55:44;9.60;99.90
40816;DHT22;26535;48.788;9.214;2023-04-16T15:58:10;9.60;99.90
40816;DHT22;26535;48.788;9.214;2023-04-16T16:00:37;9.60;99.90
40816;DHT22;26535;48.788;9.214;2023-04-16T16:03:03;9.60;99.90
40816;DHT22;26535;48.788;9.214;2023-04-16T16:05:28;9.60;99.90
40816;DHT22;26535;48.788;9.214;2023-04-16T16:07:55;9.60;99.90
40816;DHT22;26535;48.788;9.214;2023-04-16T16:10:21;9.60;99.90
40816;DHT22;26535;48.788;9.214;2023-04-16T16:12:47;9.60;99.90
40816;DHT22;26535;48.788;9.214;2023-04-16T16:15:13;9.60;99.90
40816;DHT22;26535;48.788;9.214;2023-04-16T16:17:39;9.50;99.90
40816;DHT22;26535;48.788;9.214;2023-04-16T16:20:05;9.50;99.90
40816;DHT22;26535;48.788;9.214;2023-04-16T16:22:35;9.50;99.90
40816;DHT22;26535;48.788;9.214;2023-04-16T16:25:02;9.50;99.90
40816;DHT22;26535;48.788;9.214;2023-04-16T16:27:28;9.50;99.90
40816;DHT22;26535;48.788;9.214;2023-04-16T16:29:54;9.50;99.90
40816;DHT22;26535;48.788;9.214;2023-04-16T16:32:20;9.50;99.90
40816;DHT22;26535;48.788;9.214;2023-04-16T16:34:46;9.50;99.90
40816;DHT22;26535;48.788;9.214;2023-04-16T16:37:12;9.60;99.90
40816;DHT22;26535;48.788;9.214;2023-04-16T16:39:38;9.60;99.90
40816;DHT22;26535;48.788;9.214;2023-04-16T16:42:03;9.60;99.90
40816;DHT22;26535;48.788;9.214;2023-04-16T16:44:29;9.60;99.90
40816;DHT22;26535;48.788;9.214;2023-04-16T16:46:55;9.60;99.90
40816;DHT22;26535;48.788;9.214;2023-04-16T16:49:21;9.60;99.90
40816;DHT22;26535;48.788;9.214;2023-04-16T16:51:47;9.60;99.90
40816;DHT22;26535;48.788;9.214;2023-04-16T16:54:13;9.60;99.90
40816;DHT22;26535;48.788;9.214;2023-04-16T16:56:39;9.60;99.90
40816;DHT22;26535;48.788;9.214;2023-04-16T16:59:05;9.60;99.90
40816;DHT22;26535;48.788;9.214;2023-04-16T17:01:31;9.70;99.90
40816;DHT22;26535;48.788;9.214;2023-04-16T17:03:57;9.60;99.90
40816;DHT22;26535;48.788;9.214;2023-04-16T17:06:23;9.70;99.90
40816;DHT22;26535;48.788;9.214;2023-04-16T17:08:49;9.70;99.90
40816;DHT22;26535;48.788;9.214;2023-04-16T17:11:15;9.70;99.90
40816;DHT22;26535;48.788;9.214;2023-04-16T17:13:41;9.70;99.90
40816;DHT22;26535;48.788;9.214;2023-04-16T17:16:07;9.70;99.90
40816;DHT22;26535;48.788;9.214;2023-04-16T17:18:33;9.80;99.90
40816;DHT22;26535;48.788;9.214;2023-04-16T17:20:59;9.80;99.90
40816;DHT22;26535;48.788;9.214;2023-04-16T17:23:25;9.70;99.90
40816;DHT22;26535;48.788;9.214;2023-04-16T17:25:51;9.70;99.90
40816;DHT22;26535;48.788;9.214;2023-04-16T17:28:17;9.70;99.90
40816;DHT22;26535;48.788;9.214;2023-04-16T17:30:44;9.60;99.90
40816;DHT22;26535;48.788;9.214;2023-04-16T17:33:10;9.60;99.90
40816;DHT22;26535;48.788;9.214;2023-04-16T17:35:38;9.60;99.90
40816;DHT22;26535;48.788;9.214;2023-04-16T17:38:04;9.60;99.90
40816;DHT22;26535;48.788;9.214;2023-04-16T17:40:29;9.60;99.90
40816;DHT22;26535;48.788;9.214;2023-04-16T17:42:55;9.60;99.90
40816;DHT22;26535;48.788;9.214;2023-04-16T17:45:21;9.50;99.90
40816;DHT22;26535;48.788;9.214;2023-04-16T17:47:47;9.50;99.90
40816;DHT22;26535;48.788;9.214;2023-04-16T17:50:12;9.50;99.90
40816;DHT22;26535;48.788;9.214;2023-04-16T17:52:38;9.50;99.90
40816;DHT22;26535;48.788;9.214;2023-04-16T17:55:04;9.50;99.90
40816;DHT22;26535;48.788;9.214;2023-04-16T17:57:31;9.50;99.90
40816;DHT22;26535;48.788;9.214;2023-04-16T17:59:56;9.50;99.90
40816;DHT22;26535;48.788;9.214;2023-04-16T18:02:22;9.50;99.90
40816;DHT22;26535;48.788;9.214;2023-04-16T18:04:48;9.50;99.90
40816;DHT22;26535;48.788;9.214;2023-04-16T18:07:14;9.40;99.90
40816;DHT22;26535;48.788;9.214;2023-04-16T18:09:40;9.50;99.90
40816;DHT22;26535;48.788;9.214;2023-04-16T18:12:06;9.50;99.90
40816;DHT22;26535;48.788;9.214;2023-04-16T18:14:33;9.50;99.90
40816;DHT22;26535;48.788;9.214;2023-04-16T18:17:00;9.50;99.90
40816;DHT22;26535;48.788;9.214;2023-04-16T18:19:29;9.60;99.90
40816;DHT22;26535;48.788;9.214;2023-04-16T18:21:54;9.60;99.90
40816;DHT22;26535;48.788;9.214;2023-04-16T18:24:21;9.50;99.90
40816;DHT22;26535;48.788;9.214;2023-04-16T18:26:46;9.50;99.90
40816;DHT22;26535;48.788;9.214;2023-04-16T18:29:12;9.50;99.90
40816;DHT22;26535;48.788;9.214;2023-04-16T18:31:38;9.50;99.90
40816;DHT22;26535;48.788;9.214;2023-04-16T18:34:04;9.60;99.90
40816;DHT22;26535;48.788;9.214;2023-04-16T18:36:30;9.60;99.90
40816;DHT22;26535;48.788;9.214;2023-04-16T18:38:56;9.60;99.90
40816;DHT22;26535;48.788;9.214;2023-04-16T18:41:22;9.60;99.90
40816;DHT22;26535;48.788;9.214;2023-04-16T18:43:48;9.50;99.90
40816;DHT22;26535;48.788;9.214;2023-04-16T18:46:14;9.50;99.90
40816;DHT22;26535;48.788;9.214;2023-04-16T18:48:40;9.50;99.90
40816;DHT22;26535;48.788;9.214;2023-04-16T18:51:06;9.60;99.90
40816;DHT22;26535;48.788;9.214;2023-04-16T18:53:32;9.50;99.90
40816;DHT22;26535;48.788;9.214;2023-04-16T18:55:58;9.60;99.90
40816;DHT22;26535;48.788;9.214;2023-04-16T18:58:25;9.60;99.90
40816;DHT22;26535;48.788;9.214;2023-04-16T19:00:54;9.60;99.90
40816;DHT22;26535;48.788;9.214;2023-04-16T19:03:23;9.50;99.90
40816;DHT22;26535;48.788;9.214;2023-04-16T19:05:50;9.60;99.90
40816;DHT22;26535;48.788;9.214;2023-04-16T19:08:16;9.60;99.90
40816;DHT22;26535;48.788;9.214;2023-04-16T19:10:42;9.60;99.90
40816;DHT22;26535;48.788;9.214;2023-04-16T19:13:08;9.60;99.90
40816;DHT22;26535;48.788;9.214;2023-04-16T19:15:33;9.60;99.90
40816;DHT22;26535;48.788;9.214;2023-04-16T19:17:59;9.60;99.90
40816;DHT22;26535;48.788;9.214;2023-04-16T19:20:25;9.50;99.90
40816;DHT22;26535;48.788;9.214;2023-04-16T19:22:51;9.60;99.90
40816;DHT22;26535;48.788;9.214;2023-04-16T19:25:17;9.60;99.90
40816;DHT22;26535;48.788;9.214;2023-04-16T19:27:42;9.60;99.90
40816;DHT22;26535;48.788;9.214;2023-04-16T19:30:08;9.60;99.90
40816;DHT22;26535;48.788;9.214;2023-04-16T19:32:34;9.60;99.90
40816;DHT22;26535;48.788;9.214;2023-04-16T19:35:01;9.60;99.90
40816;DHT22;26535;48.788;9.214;2023-04-16T19:37:27;9.50;99.90
40816;DHT22;26535;48.788;9.214;2023-04-16T19:39:55;9.50;99.90
40816;DHT22;26535;48.788;9.214;2023-04-16T19:42:21;9.50;99.90
40816;DHT22;26535;48.788;9.214;2023-04-16T19:44:47;9.50;99.90
40816;DHT22;26535;48.788;9.214;2023-04-16T19:47:13;9.50;99.90
40816;DHT22;26535;48.788;9.214;2023-04-16T19:49:39;9.50;99.90
40816;DHT22;26535;48.788;9.214;2023-04-16T19:52:08;9.50;99.90
40816;DHT22;26535;48.788;9.214;2023-04-16T19:54:33;9.50;99.90
40816;DHT22;26535;48.788;9.214;2023-04-16T19:57:02;9.50;99.90
40816;DHT22;26535;48.788;9.214;2023-04-16T19:59:30;9.50;99.90
40816;DHT22;26535;48.788;9.214;2023-04-16T20:01:57;9.40;99.90
40816;DHT22;26535;48.788;9.214;2023-04-16T20:04:22;9.40;99.90
40816;DHT22;26535;48.788;9.214;2023-04-16T20:06:48;9.50;99.90
40816;DHT22;26535;48.788;9.214;2023-04-16T20:09:14;9.50;99.90
40816;DHT22;26535;48.788;9.214;2023-04-16T20:11:41;9.50;99.90
40816;DHT22;26535;48.788;9.214;2023-04-16T20:14:07;9.50;99.90
40816;DHT22;26535;48.788;9.214;2023-04-16T20:16:33;9.50;99.90
40816;DHT22;26535;48.788;9.214;2023-04-16T20:19:03;9.50;99.90
40816;DHT22;26535;48.788;9.214;2023-04-16T20:21:28;9.50;99.90
40816;DHT22;26535;48.788;9.214;2023-04-16T20:23:54;9.50;99.90
40816;DHT22;26535;48.788;9.214;2023-04-16T20:26:20;9.50;99.90
40816;DHT22;26535;48.788;9.214;2023-04-16T20:28:48;9.50;99.90
40816;DHT22;26535;48.788;9.214;2023-04-16T20:31:14;9.50;99.90
40816;DHT22;26535;48.788;9.214;2023-04-16T20:33:40;9.50;99.90
40816;DHT22;26535;48.788;9.214;2023-04-16T20:36:06;9.50;99.90
40816;DHT22;26535;48.788;9.214;2023-04-16T20:38:31;9.50;99.90
40816;DHT22;26535;48.788;9.214;2023-04-16T20:41:01;9.50;99.90
40816;DHT22;26535;48.788;9.214;2023-04-16T20:43:37;9.50;99.90
40816;DHT22;26535;48.788;9.214;2023-04-16T20:46:09;9.50;99.90
40816;DHT22;26535;48.788;9.214;2023-04-16T20:48:35;9.50;99.90
40816;DHT22;26535;48.788;9.214;2023-04-16T20:51:05;9.50;99.90
40816;DHT22;26535;48.788;9.214;2023-04-16T20:53:32;9.50;99.90
40816;DHT22;26535;48.788;9.214;2023-04-16T20:55:58;9.50;99.90
40816;DHT22;26535;48.788;9.214;2023-04-16T20:58:27;9.50;99.90
40816;DHT22;26535;48.788;9.214;2023-04-16T21:00:54;9.50;99.90
40816;DHT22;26535;48.788;9.214;2023-04-16T21:03:22;9.50;99.90